createdAt,value
2022-12-12T00:03:31.223Z,18.80
2022-12-12T00:13:42.940Z,17.15
2022-12-12T00:23:48.128Z,19.92
2022-12-12T00:33:52.235Z,19.23
2022-12-12T00:43:54.253Z,20.38
2022-12-12T00:53:57.377Z,19.50
2022-12-12T01:03:59.931Z,22.17
2022-12-12T01:14:01.715Z,23.33
2022-12-12T01:24:03.659Z,21.67
2022-12-12T01:34:05.287Z,25.65
2022-12-12T01:44:38.563Z,26.90
2022-12-12T01:54:54.320Z,27.65
2022-12-12T02:05:28.049Z,27.38
2022-12-12T02:15:44.087Z,26.95
2022-12-12T02:26:36.378Z,24.73
2022-12-12T02:37:07.343Z,27.90
2022-12-12T02:47:28.747Z,24.48
2022-12-12T02:57:30.402Z,26.95
2022-12-12T03:08:03.084Z,25.90
2022-12-12T03:18:13.866Z,22.63
2022-12-12T03:28:30.403Z,26.52
2022-12-12T03:38:36.535Z,19.48
2022-12-12T03:48:43.881Z,26.75
2022-12-12T03:59:05.495Z,26.08
2022-12-12T04:09:39.006Z,21.50
2022-12-12T04:20:28.034Z,20.15
2022-12-12T04:30:35.174Z,22.30
2022-12-12T04:40:45.245Z,20.48
2022-12-12T04:50:51.064Z,21.67
2022-12-12T05:01:04.927Z,20.40
2022-12-12T05:11:07.624Z,20.23
2022-12-12T05:21:10.563Z,18.70
2022-12-12T05:31:12.339Z,18.60
2022-12-12T05:41:16.412Z,20.80
2022-12-12T05:51:22.979Z,21.60
2022-12-12T06:01:27.850Z,21.77
2022-12-12T06:11:30.230Z,20.98
2022-12-12T06:21:32.841Z,20.60
2022-12-12T06:31:34.589Z,20.15
2022-12-12T06:41:36.671Z,23.35
2022-12-12T06:51:47.256Z,21.77
2022-12-12T07:01:50.935Z,19.75
2022-12-12T07:11:52.677Z,21.83
2022-12-12T07:21:55.471Z,24.50
2022-12-12T07:31:57.158Z,18.55
2022-12-12T07:41:58.970Z,18.15
2022-12-12T07:52:00.638Z,19.95
2022-12-12T08:02:03.753Z,21.90
2022-12-12T08:12:07.083Z,18.70
2022-12-12T08:22:08.990Z,18.73
2022-12-12T08:32:10.816Z,21.02
2022-12-12T08:42:13.432Z,13.70
2022-12-12T08:52:16.089Z,15.05
2022-12-12T09:02:17.941Z,14.20
2022-12-12T09:12:26.094Z,11.60
2022-12-12T09:22:31.776Z,10.68
2022-12-12T09:32:33.527Z,12.45
2022-12-12T09:42:46.139Z,12.63
2022-12-12T09:52:48.392Z,11.82
2022-12-12T10:03:15.343Z,12.73
2022-12-12T10:13:37.310Z,11.32
2022-12-12T10:23:55.857Z,12.15
2022-12-12T10:34:35.559Z,12.00
2022-12-12T10:45:04.084Z,12.93
2022-12-12T10:55:20.143Z,10.00
2022-12-12T11:05:27.123Z,11.70
2022-12-12T11:16:02.515Z,15.35
2022-12-12T11:26:19.012Z,12.57
2022-12-12T11:36:37.550Z,13.90
2022-12-12T11:46:46.261Z,13.55
2022-12-12T11:56:57.778Z,11.93
2022-12-12T12:07:15.892Z,11.52
2022-12-12T12:17:37.669Z,8.77
2022-12-12T12:27:51.599Z,12.30
2022-12-12T12:38:39.214Z,11.55
2022-12-12T12:48:49.294Z,14.13
2022-12-12T12:58:54.947Z,11.38
2022-12-12T13:09:16.435Z,13.40
2022-12-12T13:19:25.939Z,13.07
2022-12-12T13:29:47.393Z,12.00
2022-12-12T13:40:07.528Z,11.85
2022-12-12T13:50:09.427Z,15.73
2022-12-12T14:00:19.671Z,9.98
2022-12-12T14:10:33.159Z,12.75
2022-12-12T14:20:44.600Z,11.63
2022-12-12T14:31:04.749Z,12.82
2022-12-12T14:41:13.569Z,10.05
2022-12-12T14:51:29.462Z,14.60
2022-12-12T15:01:39.022Z,15.45
2022-12-12T15:11:40.870Z,12.93
2022-12-12T15:21:44.984Z,12.55
2022-12-12T15:41:51.272Z,14.35
2022-12-12T15:51:53.942Z,14.98
2022-12-12T16:01:56.503Z,18.00
2022-12-12T16:11:59.524Z,16.02
2022-12-12T16:22:08.101Z,12.50
2022-12-12T16:32:18.304Z,12.55
2022-12-12T16:42:24.120Z,13.00
2022-12-12T16:52:25.834Z,13.32
2022-12-12T17:02:30.107Z,13.02
2022-12-12T17:12:31.909Z,12.00
2022-12-12T17:22:33.987Z,11.10
2022-12-12T17:32:36.636Z,13.25
2022-12-12T17:42:39.028Z,11.70
2022-12-12T17:52:41.467Z,15.57
2022-12-12T18:02:45.349Z,12.73
2022-12-12T18:12:51.762Z,15.90
2022-12-12T18:22:56.332Z,15.57
2022-12-12T18:33:02.941Z,15.55
2022-12-12T18:43:05.791Z,19.08
2022-12-12T18:53:08.899Z,18.38
2022-12-12T19:03:17.934Z,17.10
2022-12-12T19:13:24.913Z,17.88
2022-12-12T19:23:27.115Z,22.83
2022-12-12T19:33:30.033Z,16.95
2022-12-12T19:43:36.457Z,18.25
2022-12-12T19:53:46.951Z,14.63
2022-12-12T20:03:57.031Z,16.67
2022-12-12T20:14:00.664Z,16.20
2022-12-12T20:24:12.660Z,15.93
2022-12-12T20:34:21.923Z,17.63
2022-12-12T20:44:26.363Z,13.43
2022-12-12T20:54:31.416Z,16.08
2022-12-12T21:04:33.628Z,12.05
2022-12-12T21:14:40.362Z,14.82
2022-12-12T21:24:42.211Z,17.05
2022-12-12T21:34:43.876Z,14.68
2022-12-12T21:44:47.703Z,15.10
2022-12-12T21:54:56.547Z,14.10
2022-12-12T22:04:59.168Z,16.65
2022-12-12T22:15:01.505Z,16.65
2022-12-12T22:25:03.549Z,16.40
2022-12-12T22:35:06.260Z,19.73
2022-12-12T22:45:14.007Z,18.63
2022-12-12T22:55:17.402Z,19.40
2022-12-12T23:05:19.444Z,19.20
2022-12-12T23:15:21.502Z,21.45
2022-12-12T23:25:24.162Z,25.55
2022-12-12T23:35:31.802Z,25.95
2022-12-12T23:45:38.699Z,21.83
2022-12-12T23:55:40.530Z,26.98
